sensor_id;sensor_type;location;lat;lon;timestamp;pressure;altitude;pressure_sealevel;temperature;humidity
30516;BME280;17297;54.022;10.760;2023-03-03T00:02:03;102378.44;;;4.84;67.97
30516;BME280;17297;54.022;10.760;2023-03-03T00:04:28;102372.13;;;4.85;68.20
30516;BME280;17297;54.022;10.760;2023-03-03T00:06:54;102371.41;;;4.83;68.12
30516;BME280;17297;54.022;10.760;2023-03-03T00:09:19;102375.88;;;4.82;68.19
30516;BME280;17297;54.022;10.760;2023-03-03T00:11:47;102382.09;;;4.83;67.93
30516;BME280;17297;54.022;10.760;2023-03-03T00:14:34;102376.75;;;4.83;68.19
30516;BME280;17297;54.022;10.760;2023-03-03T00:17:00;102380.25;;;4.83;68.16
30516;BME280;17297;54.022;10.760;2023-03-03T00:19:37;102382.78;;;4.85;68.26
30516;BME280;17297;54.022;10.760;2023-03-03T00:22:15;102387.91;;;4.88;68.21
30516;BME280;17297;54.022;10.760;2023-03-03T00:24:46;102391.31;;;4.90;68.15
30516;BME280;17297;54.022;10.760;2023-03-03T00:27:29;102377.84;;;4.92;68.29
30516;BME280;17297;54.022;10.760;2023-03-03T00:29:56;102380.41;;;4.93;68.06
30516;BME280;17297;54.022;10.760;2023-03-03T00:32:41;102368.78;;;4.94;68.24
30516;BME280;17297;54.022;10.760;2023-03-03T00:35:31;102373.03;;;4.97;68.26
30516;BME280;17297;54.022;10.760;2023-03-03T00:38:32;102364.03;;;4.98;68.23
30516;BME280;17297;54.022;10.760;2023-03-03T00:40:59;102366.63;;;4.99;68.30
30516;BME280;17297;54.022;10.760;2023-03-03T00:43:33;102358.72;;;4.98;68.30
30516;BME280;17297;54.022;10.760;2023-03-03T00:46:00;102353.38;;;4.98;68.12
30516;BME280;17297;54.022;10.760;2023-03-03T00:53:42;102357.25;;;4.94;68.07
30516;BME280;17297;54.022;10.760;2023-03-03T00:56:08;102360.91;;;4.93;68.19
30516;BME280;17297;54.022;10.760;2023-03-03T00:58:34;102358.47;;;4.90;68.09
30516;BME280;17297;54.022;10.760;2023-03-03T01:01:00;102361.22;;;4.88;68.15
30516;BME280;17297;54.022;10.760;2023-03-03T01:03:36;102360.38;;;4.88;68.27
30516;BME280;17297;54.022;10.760;2023-03-03T01:06:01;102363.06;;;4.88;68.16
30516;BME280;17297;54.022;10.760;2023-03-03T01:08:27;102356.03;;;4.86;68.26
30516;BME280;17297;54.022;10.760;2023-03-03T01:10:58;102354.31;;;4.85;68.37
30516;BME280;17297;54.022;10.760;2023-03-03T01:13:28;102349.84;;;4.86;68.28
30516;BME280;17297;54.022;10.760;2023-03-03T01:15:54;102351.66;;;4.85;68.17
30516;BME280;17297;54.022;10.760;2023-03-03T01:18:20;102348.13;;;4.85;68.21
30516;BME280;17297;54.022;10.760;2023-03-03T01:20:46;102354.31;;;4.85;68.38
30516;BME280;17297;54.022;10.760;2023-03-03T01:23:11;102352.63;;;4.84;68.15
30516;BME280;17297;54.022;10.760;2023-03-03T01:25:38;102345.59;;;4.83;68.33
30516;BME280;17297;54.022;10.760;2023-03-03T01:28:04;102345.59;;;4.83;68.23
30516;BME280;17297;54.022;10.760;2023-03-03T01:30:30;102342.94;;;4.83;68.29
30516;BME280;17297;54.022;10.760;2023-03-03T01:32:57;102343.88;;;4.82;68.37
30516;BME280;17297;54.022;10.760;2023-03-03T01:35:23;102343.03;;;4.82;68.33
30516;BME280;17297;54.022;10.760;2023-03-03T01:37:48;102340.38;;;4.82;68.21
30516;BME280;17297;54.022;10.760;2023-03-03T01:40:18;102333.34;;;4.81;68.28
30516;BME280;17297;54.022;10.760;2023-03-03T01:42:44;102328.00;;;4.81;68.40
30516;BME280;17297;54.022;10.760;2023-03-03T01:45:16;102328.09;;;4.79;68.36
30516;BME280;17297;54.022;10.760;2023-03-03T01:53:20;102329.22;;;4.77;68.32
30516;BME280;17297;54.022;10.760;2023-03-03T01:55:48;102330.16;;;4.76;68.35
30516;BME280;17297;54.022;10.760;2023-03-03T01:58:35;102336.47;;;4.75;68.46
30516;BME280;17297;54.022;10.760;2023-03-03T02:01:09;102340.97;;;4.74;68.34
30516;BME280;17297;54.022;10.760;2023-03-03T02:03:38;102326.56;;;4.77;67.99
30516;BME280;17297;54.022;10.760;2023-03-03T02:06:07;102329.56;;;4.72;68.29
30516;BME280;17297;54.022;10.760;2023-03-03T02:08:42;102337.56;;;4.72;68.36
30516;BME280;17297;54.022;10.760;2023-03-03T02:11:13;102332.34;;;4.71;68.32
30516;BME280;17297;54.022;10.760;2023-03-03T02:13:39;102327.97;;;4.70;68.39
30516;BME280;17297;54.022;10.760;2023-03-03T02:16:05;102327.84;;;4.71;68.37
30516;BME280;17297;54.022;10.760;2023-03-03T02:18:31;102329.69;;;4.71;68.27
30516;BME280;17297;54.022;10.760;2023-03-03T02:21:16;102326.13;;;4.70;68.42
30516;BME280;17297;54.022;10.760;2023-03-03T02:24:12;102330.63;;;4.70;68.14
30516;BME280;17297;54.022;10.760;2023-03-03T02:26:43;102329.78;;;4.69;68.07
30516;BME280;17297;54.022;10.760;2023-03-03T02:29:09;102333.44;;;4.68;68.24
30516;BME280;17297;54.022;10.760;2023-03-03T02:31:37;102333.44;;;4.68;68.28
30516;BME280;17297;54.022;10.760;2023-03-03T02:34:03;102336.09;;;4.68;68.31
30516;BME280;17297;54.022;10.760;2023-03-03T02:36:32;102330.84;;;4.67;68.14
30516;BME280;17297;54.022;10.760;2023-03-03T02:39:17;102331.84;;;4.66;68.45
30516;BME280;17297;54.022;10.760;2023-03-03T02:44:39;102321.41;;;4.62;68.33
30516;BME280;17297;54.022;10.760;2023-03-03T02:47:05;102310.00;;;4.60;68.25
30516;BME280;17297;54.022;10.760;2023-03-03T02:49:33;102314.63;;;4.58;68.26
30516;BME280;17297;54.022;10.760;2023-03-03T02:52:01;102312.88;;;4.57;68.32
30516;BME280;17297;54.022;10.760;2023-03-03T02:54:28;102319.19;;;4.56;68.20
30516;BME280;17297;54.022;10.760;2023-03-03T02:56:59;102321.03;;;4.56;68.25
30516;BME280;17297;54.022;10.760;2023-03-03T02:59:25;102316.66;;;4.55;68.33
30516;BME280;17297;54.022;10.760;2023-03-03T03:01:51;102314.94;;;4.54;68.28
30516;BME280;17297;54.022;10.760;2023-03-03T03:04:23;102313.13;;;4.54;68.34
30516;BME280;17297;54.022;10.760;2023-03-03T03:06:50;102317.75;;;4.52;68.38
30516;BME280;17297;54.022;10.760;2023-03-03T03:09:19;102315.19;;;4.51;68.31
30516;BME280;17297;54.022;10.760;2023-03-03T03:11:46;102321.47;;;4.50;68.31
30516;BME280;17297;54.022;10.760;2023-03-03T03:14:14;102318.81;;;4.50;68.40
30516;BME280;17297;54.022;10.760;2023-03-03T03:16:42;102325.13;;;4.49;68.24
30516;BME280;17297;54.022;10.760;2023-03-03T03:19:07;102326.06;;;4.48;68.20
30516;BME280;17297;54.022;10.760;2023-03-03T03:21:34;102320.88;;;4.46;68.03
30516;BME280;17297;54.022;10.760;2023-03-03T03:24:01;102303.28;;;4.44;68.14
30516;BME280;17297;54.022;10.760;2023-03-03T03:26:27;102310.53;;;4.42;68.38
30516;BME280;17297;54.022;10.760;2023-03-03T03:28:53;102304.50;;;4.39;68.14
30516;BME280;17297;54.022;10.760;2023-03-03T03:31:19;102306.41;;;4.37;68.20
30516;BME280;17297;54.022;10.760;2023-03-03T03:33:46;102316.31;;;4.35;68.14
30516;BME280;17297;54.022;10.760;2023-03-03T03:36:13;102309.41;;;4.33;68.20
30516;BME280;17297;54.022;10.760;2023-03-03T03:38:40;102309.63;;;4.30;68.14
30516;BME280;17297;54.022;10.760;2023-03-03T03:41:07;102299.94;;;4.29;67.96
30516;BME280;17297;54.022;10.760;2023-03-03T03:43:34;102301.00;;;4.26;68.24
30516;BME280;17297;54.022;10.760;2023-03-03T03:46:00;102297.63;;;4.24;68.02
30516;BME280;17297;54.022;10.760;2023-03-03T03:48:26;102303.06;;;4.23;68.09
30516;BME280;17297;54.022;10.760;2023-03-03T03:50:52;102291.69;;;4.21;67.97
30516;BME280;17297;54.022;10.760;2023-03-03T03:53:18;102295.28;;;4.20;68.00
30516;BME280;17297;54.022;10.760;2023-03-03T03:55:45;102298.09;;;4.18;68.13
30516;BME280;17297;54.022;10.760;2023-03-03T03:58:15;102292.84;;;4.16;68.16
30516;BME280;17297;54.022;10.760;2023-03-03T04:00:44;102297.34;;;4.16;68.00
30516;BME280;17297;54.022;10.760;2023-03-03T04:03:11;102292.13;;;4.14;67.95
30516;BME280;17297;54.022;10.760;2023-03-03T04:05:39;102295.75;;;4.13;67.86
30516;BME280;17297;54.022;10.760;2023-03-03T04:08:06;102291.41;;;4.12;68.01
30516;BME280;17297;54.022;10.760;2023-03-03T04:10:32;102298.63;;;4.10;68.06
30516;BME280;17297;54.022;10.760;2023-03-03T04:12:58;102305.91;;;4.08;67.97
30516;BME280;17297;54.022;10.760;2023-03-03T04:15:23;102320.16;;;4.07;67.92
30516;BME280;17297;54.022;10.760;2023-03-03T04:17:49;102314.22;;;4.04;67.91
30516;BME280;17297;54.022;10.760;2023-03-03T04:20:15;102320.63;;;4.01;68.07
30516;BME280;17297;54.022;10.760;2023-03-03T04:22:43;102318.09;;;4.00;67.93
30516;BME280;17297;54.022;10.760;2023-03-03T04:25:13;102327.13;;;3.97;67.97
30516;BME280;17297;54.022;10.760;2023-03-03T04:27:41;102320.97;;;3.97;68.07
30516;BME280;17297;54.022;10.760;2023-03-03T04:30:08;102324.56;;;3.96;67.92
30516;BME280;17297;54.022;10.760;2023-03-03T04:32:35;102319.38;;;3.94;67.74
30516;BME280;17297;54.022;10.760;2023-03-03T04:35:04;102313.28;;;3.92;67.85
30516;BME280;17297;54.022;10.760;2023-03-03T04:37:29;102308.09;;;3.90;67.79
30516;BME280;17297;54.022;10.760;2023-03-03T04:39:55;102311.81;;;3.88;67.83
30516;BME280;17297;54.022;10.760;2023-03-03T04:42:21;102307.47;;;3.87;67.90
30516;BME280;17297;54.022;10.760;2023-03-03T04:44:47;102312.03;;;3.85;67.99
30516;BME280;17297;54.022;10.760;2023-03-03T04:47:13;102306.84;;;3.83;67.93
30516;BME280;17297;54.022;10.760;2023-03-03T04:49:39;102301.63;;;3.82;67.82
30516;BME280;17297;54.022;10.760;2023-03-03T04:52:05;102308.84;;;3.80;67.75
30516;BME280;17297;54.022;10.760;2023-03-03T04:54:31;102307.28;;;3.77;67.76
30516;BME280;17297;54.022;10.760;2023-03-03T04:56:56;102305.69;;;3.75;67.74
30516;BME280;17297;54.022;10.760;2023-03-03T04:59:23;102304.94;;;3.73;67.67
30516;BME280;17297;54.022;10.760;2023-03-03T05:01:49;102311.34;;;3.70;67.65
30516;BME280;17297;54.022;10.760;2023-03-03T05:04:16;102311.47;;;3.68;67.67
30516;BME280;17297;54.022;10.760;2023-03-03T05:06:41;102316.88;;;3.67;67.75
30516;BME280;17297;54.022;10.760;2023-03-03T05:09:07;102317.00;;;3.65;67.65
30516;BME280;17297;54.022;10.760;2023-03-03T05:11:34;102320.59;;;3.64;67.62
30516;BME280;17297;54.022;10.760;2023-03-03T05:13:59;102319.88;;;3.62;67.51
30516;BME280;17297;54.022;10.760;2023-03-03T05:16:25;102320.81;;;3.61;67.61
30516;BME280;17297;54.022;10.760;2023-03-03T05:18:50;102318.41;;;3.58;67.73
30516;BME280;17297;54.022;10.760;2023-03-03T05:21:16;102311.38;;;3.57;67.51
30516;BME280;17297;54.022;10.760;2023-03-03T05:23:41;102323.94;;;3.55;67.68
30516;BME280;17297;54.022;10.760;2023-03-03T05:26:07;102324.88;;;3.54;67.67
30516;BME280;17297;54.022;10.760;2023-03-03T05:28:32;102326.69;;;3.54;67.57
30516;BME280;17297;54.022;10.760;2023-03-03T05:30:58;102324.16;;;3.52;67.60
30516;BME280;17297;54.022;10.760;2023-03-03T05:33:24;102318.84;;;3.52;67.60
30516;BME280;17297;54.022;10.760;2023-03-03T05:35:53;102311.91;;;3.50;67.57
30516;BME280;17297;54.022;10.760;2023-03-03T05:38:20;102319.06;;;3.49;67.42
30516;BME280;17297;54.022;10.760;2023-03-03T05:40:46;102320.00;;;3.48;67.58
30516;BME280;17297;54.022;10.760;2023-03-03T05:43:11;102320.97;;;3.47;67.64
30516;BME280;17297;54.022;10.760;2023-03-03T05:45:40;102312.22;;;3.45;67.54
30516;BME280;17297;54.022;10.760;2023-03-03T05:48:05;102322.78;;;3.46;67.52
30516;BME280;17297;54.022;10.760;2023-03-03T05:50:31;102316.63;;;3.46;67.50
30516;BME280;17297;54.022;10.760;2023-03-03T05:52:57;102313.06;;;3.45;67.52
30516;BME280;17297;54.022;10.760;2023-03-03T05:55:23;102313.06;;;3.45;67.33
30516;BME280;17297;54.022;10.760;2023-03-03T05:57:48;102320.22;;;3.45;67.39
30516;BME280;17297;54.022;10.760;2023-03-03T06:00:14;102313.19;;;3.44;67.48
30516;BME280;17297;54.022;10.760;2023-03-03T06:02:40;102323.00;;;3.43;67.45
30516;BME280;17297;54.022;10.760;2023-03-03T06:05:07;102323.84;;;3.44;67.52
30516;BME280;17297;54.022;10.760;2023-03-03T06:07:33;102335.44;;;3.43;67.47
30516;BME280;17297;54.022;10.760;2023-03-03T06:09:58;102339.81;;;3.44;67.33
30516;BME280;17297;54.022;10.760;2023-03-03T06:12:24;102340.56;;;3.46;67.41
30516;BME280;17297;54.022;10.760;2023-03-03T06:14:50;102338.75;;;3.46;67.48
30516;BME280;17297;54.022;10.760;2023-03-03T06:17:15;102345.66;;;3.49;67.38
30516;BME280;17297;54.022;10.760;2023-03-03T06:19:41;102342.88;;;3.51;67.45
30516;BME280;17297;54.022;10.760;2023-03-03T06:22:07;102345.31;;;3.54;67.65
30516;BME280;17297;54.022;10.760;2023-03-03T06:24:33;102340.53;;;3.59;67.45
30516;BME280;17297;54.022;10.760;2023-03-03T06:26:59;102341.16;;;3.62;67.37
30516;BME280;17297;54.022;10.760;2023-03-03T06:29:25;102342.66;;;3.66;67.33
30516;BME280;17297;54.022;10.760;2023-03-03T06:31:51;102344.13;;;3.70;67.40
30516;BME280;17297;54.022;10.760;2023-03-03T06:34:17;102355.31;;;3.76;67.46
30516;BME280;17297;54.022;10.760;2023-03-03T06:36:43;102354.88;;;3.82;67.32
30516;BME280;17297;54.022;10.760;2023-03-03T06:39:09;102357.22;;;3.86;67.35
30516;BME280;17297;54.022;10.760;2023-03-03T06:41:34;102353.22;;;3.92;67.42
30516;BME280;17297;54.022;10.760;2023-03-03T06:44:03;102358.34;;;3.95;67.28
30516;BME280;17297;54.022;10.760;2023-03-03T06:46:29;102359.84;;;3.99;67.36
30516;BME280;17297;54.022;10.760;2023-03-03T06:48:54;102351.50;;;4.04;67.20
30516;BME280;17297;54.022;10.760;2023-03-03T06:53:55;102361.41;;;4.14;67.06
30516;BME280;17297;54.022;10.760;2023-03-03T06:56:23;102366.28;;;4.21;67.27
30516;BME280;17297;54.022;10.760;2023-03-03T06:58:52;102357.94;;;4.25;67.25
30516;BME280;17297;54.022;10.760;2023-03-03T07:01:18;102362.69;;;4.33;67.43
30516;BME280;17297;54.022;10.760;2023-03-03T07:03:44;102359.34;;;4.42;67.21
30516;BME280;17297;54.022;10.760;2023-03-03T07:06:22;102371.75;;;4.54;67.24
30516;BME280;17297;54.022;10.760;2023-03-03T07:08:49;102370.34;;;4.61;67.17
30516;BME280;17297;54.022;10.760;2023-03-03T07:11:17;102378.13;;;4.65;67.14
30516;BME280;17297;54.022;10.760;2023-03-03T07:13:49;102374.59;;;4.64;66.92
30516;BME280;17297;54.022;10.760;2023-03-03T07:16:16;102376.41;;;4.63;66.85
30516;BME280;17297;54.022;10.760;2023-03-03T07:18:53;102373.88;;;4.62;66.91
30516;BME280;17297;54.022;10.760;2023-03-03T07:21:19;102365.97;;;4.60;66.94
30516;BME280;17297;54.022;10.760;2023-03-03T07:23:48;102363.31;;;4.60;66.93
30516;BME280;17297;54.022;10.760;2023-03-03T07:26:17;102368.78;;;4.59;66.91
30516;BME280;17297;54.022;10.760;2023-03-03T07:28:52;102374.19;;;4.57;66.86
30516;BME280;17297;54.022;10.760;2023-03-03T07:31:45;102369.00;;;4.56;66.97
30516;BME280;17297;54.022;10.760;2023-03-03T07:36:48;102371.75;;;4.54;66.90
30516;BME280;17297;54.022;10.760;2023-03-03T07:41:42;102374.44;;;4.54;66.97
30516;BME280;17297;54.022;10.760;2023-03-03T07:44:20;102378.81;;;4.55;67.14
30516;BME280;17297;54.022;10.760;2023-03-03T07:46:47;102377.75;;;4.58;67.23
30516;BME280;17297;54.022;10.760;2023-03-03T07:49:29;102370.59;;;4.58;67.11
30516;BME280;17297;54.022;10.760;2023-03-03T07:51:58;102369.75;;;4.58;67.05
30516;BME280;17297;54.022;10.760;2023-03-03T07:54:34;102385.84;;;4.56;67.14
30516;BME280;17297;54.022;10.760;2023-03-03T07:57:22;102386.34;;;4.61;67.06
30516;BME280;17297;54.022;10.760;2023-03-03T07:59:51;102383.78;;;4.60;66.93
30516;BME280;17297;54.022;10.760;2023-03-03T08:05:46;102388.03;;;4.62;67.18
30516;BME280;17297;54.022;10.760;2023-03-03T08:10:49;102396.66;;;4.66;67.15
30516;BME280;17297;54.022;10.760;2023-03-03T08:15:49;102398.25;;;4.69;67.22
30516;BME280;17297;54.022;10.760;2023-03-03T08:20:53;102399.84;;;4.71;67.30
30516;BME280;17297;54.022;10.760;2023-03-03T08:23:19;102398.88;;;4.72;67.27
30516;BME280;17297;54.022;10.760;2023-03-03T08:25:46;102401.53;;;4.72;67.36
30516;BME280;17297;54.022;10.760;2023-03-03T08:28:13;102405.78;;;4.75;67.44
30516;BME280;17297;54.022;10.760;2023-03-03T08:30:40;102405.66;;;4.76;67.09
30516;BME280;17297;54.022;10.760;2023-03-03T08:33:06;102411.88;;;4.77;67.25
30516;BME280;17297;54.022;10.760;2023-03-03T08:35:31;102402.06;;;4.77;67.28
30516;BME280;17297;54.022;10.760;2023-03-03T08:37:57;102401.91;;;4.79;67.20
30516;BME280;17297;54.022;10.760;2023-03-03T08:40:23;102408.84;;;4.81;67.38
30516;BME280;17297;54.022;10.760;2023-03-03T08:42:49;102409.59;;;4.83;67.45
30516;BME280;17297;54.022;10.760;2023-03-03T08:45:15;102419.91;;;4.88;67.49
30516;BME280;17297;54.022;10.760;2023-03-03T08:47:41;102407.41;;;4.89;67.28
30516;BME280;17297;54.022;10.760;2023-03-03T08:50:07;102419.66;;;4.91;67.38
30516;BME280;17297;54.022;10.760;2023-03-03T08:52:33;102419.56;;;4.93;67.17
30516;BME280;17297;54.022;10.760;2023-03-03T08:54:59;102419.44;;;4.94;67.38
30516;BME280;17297;54.022;10.760;2023-03-03T08:57:24;102414.84;;;4.96;67.38
30516;BME280;17297;54.022;10.760;2023-03-03T08:59:50;102416.44;;;4.99;67.37
30516;BME280;17297;54.022;10.760;2023-03-03T09:02:15;102413.66;;;5.00;67.55
30516;BME280;17297;54.022;10.760;2023-03-03T09:04:42;102426.75;;;5.03;67.42
30516;BME280;17297;54.022;10.760;2023-03-03T09:07:08;102411.50;;;5.05;67.47
30516;BME280;17297;54.022;10.760;2023-03-03T09:09:33;102411.25;;;5.08;67.49
30516;BME280;17297;54.022;10.760;2023-03-03T09:12:18;102405.69;;;5.12;67.68
30516;BME280;17297;54.022;10.760;2023-03-03T09:14:46;102408.84;;;5.17;67.56
30516;BME280;17297;54.022;10.760;2023-03-03T09:17:23;102408.25;;;5.24;67.79
30516;BME280;17297;54.022;10.760;2023-03-03T09:19:51;102420.41;;;5.28;67.41
30516;BME280;17297;54.022;10.760;2023-03-03T09:22:24;102420.91;;;5.33;67.76
30516;BME280;17297;54.022;10.760;2023-03-03T09:24:53;102419.59;;;5.39;67.50
30516;BME280;17297;54.022;10.760;2023-03-03T09:27:30;102417.53;;;5.43;67.58
30516;BME280;17297;54.022;10.760;2023-03-03T09:30:23;102412.66;;;5.48;67.74
30516;BME280;17297;54.022;10.760;2023-03-03T09:32:52;102404.41;;;5.51;67.54
30516;BME280;17297;54.022;10.760;2023-03-03T09:35:38;102409.28;;;5.57;67.48
30516;BME280;17297;54.022;10.760;2023-03-03T09:38:30;102401.53;;;5.65;67.77
30516;BME280;17297;54.022;10.760;2023-03-03T09:41:34;102400.91;;;5.73;67.60
30516;BME280;17297;54.022;10.760;2023-03-03T09:49:30;102396.22;;;5.99;67.67
30516;BME280;17297;54.022;10.760;2023-03-03T10:02:50;102374.78;;;6.65;68.05
30516;BME280;17297;54.022;10.760;2023-03-03T10:05:46;102363.06;;;6.77;67.89
30516;BME280;17297;54.022;10.760;2023-03-03T10:11:22;102371.25;;;6.97;67.83
30516;BME280;17297;54.022;10.760;2023-03-03T10:13:59;102372.28;;;7.05;67.69
30516;BME280;17297;54.022;10.760;2023-03-03T10:19:21;102376.94;;;7.24;67.84
30516;BME280;17297;54.022;10.760;2023-03-03T10:25:03;102371.63;;;7.34;67.70
30516;BME280;17297;54.022;10.760;2023-03-03T10:35:23;102360.53;;;7.38;67.48
30516;BME280;17297;54.022;10.760;2023-03-03T10:43:39;102351.25;;;7.43;67.56
30516;BME280;17297;54.022;10.760;2023-03-03T10:49:19;102357.06;;;7.48;67.49
30516;BME280;17297;54.022;10.760;2023-03-03T10:52:13;102357.47;;;7.53;67.71
30516;BME280;17297;54.022;10.760;2023-03-03T11:03:10;102339.69;;;7.73;67.76
30516;BME280;17297;54.022;10.760;2023-03-03T11:13:17;102320.25;;;7.90;67.36
30516;BME280;17297;54.022;10.760;2023-03-03T11:15:58;102324.63;;;7.91;67.42
30516;BME280;17297;54.022;10.760;2023-03-03T11:18:57;102317.47;;;7.92;67.40
30516;BME280;17297;54.022;10.760;2023-03-03T11:24:17;102297.72;;;7.93;67.18
30516;BME280;17297;54.022;10.760;2023-03-03T11:32:09;102301.78;;;7.97;67.28
30516;BME280;17297;54.022;10.760;2023-03-03T11:35:57;102312.25;;;8.00;67.28
30516;BME280;17297;54.022;10.760;2023-03-03T11:40:49;102309.72;;;8.08;67.41
30516;BME280;17297;54.022;10.760;2023-03-03T11:43:25;102307.50;;;8.13;67.08
30516;BME280;17297;54.022;10.760;2023-03-03T11:45:59;102304.53;;;8.16;67.22
30516;BME280;17297;54.022;10.760;2023-03-03T11:49:08;102304.09;;;8.21;67.09
30516;BME280;17297;54.022;10.760;2023-03-03T11:51:52;102303.94;;;8.22;67.02
30516;BME280;17297;54.022;10.760;2023-03-03T11:54:23;102296.50;;;8.26;67.13
30516;BME280;17297;54.022;10.760;2023-03-03T11:56:55;102288.28;;;8.27;66.90
30516;BME280;17297;54.022;10.760;2023-03-03T12:00:05;102280.25;;;8.27;67.05
30516;BME280;17297;54.022;10.760;2023-03-03T12:02:33;102282.94;;;8.27;66.90
30516;BME280;17297;54.022;10.760;2023-03-03T12:05:13;102278.41;;;8.28;66.82
30516;BME280;17297;54.022;10.760;2023-03-03T12:07:57;102283.66;;;8.29;66.84
30516;BME280;17297;54.022;10.760;2023-03-03T12:10:45;102279.97;;;8.30;66.83
30516;BME280;17297;54.022;10.760;2023-03-03T12:16:06;102269.81;;;8.34;66.84
30516;BME280;17297;54.022;10.760;2023-03-03T12:21:49;102267.00;;;8.36;66.74
30516;BME280;17297;54.022;10.760;2023-03-03T12:27:12;102263.47;;;8.35;66.64
30516;BME280;17297;54.022;10.760;2023-03-03T12:35:53;102254.72;;;8.33;66.52
30516;BME280;17297;54.022;10.760;2023-03-03T12:38:44;102256.56;;;8.32;66.69
30516;BME280;17297;54.022;10.760;2023-03-03T12:41:39;102246.78;;;8.31;66.69
30516;BME280;17297;54.022;10.760;2023-03-03T12:44:17;102251.31;;;8.31;66.40
30516;BME280;17297;54.022;10.760;2023-03-03T12:49:17;102238.06;;;8.29;66.32
30516;BME280;17297;54.022;10.760;2023-03-03T12:52:10;102235.38;;;8.29;66.54
30516;BME280;17297;54.022;10.760;2023-03-03T12:54:50;102225.63;;;8.28;66.51
30516;BME280;17297;54.022;10.760;2023-03-03T13:00:10;102222.94;;;8.28;66.34
30516;BME280;17297;54.022;10.760;2023-03-03T13:02:52;102209.53;;;8.28;66.25
30516;BME280;17297;54.022;10.760;2023-03-03T13:05:48;102210.53;;;8.27;66.21
30516;BME280;17297;54.022;10.760;2023-03-03T13:13:57;102187.97;;;8.30;66.12
30516;BME280;17297;54.022;10.760;2023-03-03T13:16:38;102190.50;;;8.31;65.88
30516;BME280;17297;54.022;10.760;2023-03-03T13:19:24;102175.97;;;8.34;65.94
30516;BME280;17297;54.022;10.760;2023-03-03T13:21:54;102182.03;;;8.36;65.72
30516;BME280;17297;54.022;10.760;2023-03-03T13:24:38;102174.72;;;8.38;65.94
30516;BME280;17297;54.022;10.760;2023-03-03T13:27:13;102172.91;;;8.39;65.80
30516;BME280;17297;54.022;10.760;2023-03-03T13:29:55;102164.69;;;8.40;65.83
30516;BME280;17297;54.022;10.760;2023-03-03T13:32:31;102174.28;;;8.43;65.65
30516;BME280;17297;54.022;10.760;2023-03-03T13:35:07;102165.25;;;8.44;65.53
30516;BME280;17297;54.022;10.760;2023-03-03T13:37:48;102158.19;;;8.43;65.74
30516;BME280;17297;54.022;10.760;2023-03-03T13:40:26;102162.56;;;8.44;65.61
30516;BME280;17297;54.022;10.760;2023-03-03T13:43:09;102159.03;;;8.43;65.49
30516;BME280;17297;54.022;10.760;2023-03-03T13:46:02;102154.50;;;8.44;65.74
30516;BME280;17297;54.022;10.760;2023-03-03T13:48:39;102148.19;;;8.45;65.67
30516;BME280;17297;54.022;10.760;2023-03-03T14:01:54;102134.31;;;8.49;65.66
30516;BME280;17297;54.022;10.760;2023-03-03T14:07:30;102132.34;;;8.51;65.50
30516;BME280;17297;54.022;10.760;2023-03-03T14:13:08;102117.94;;;8.52;65.21
30516;BME280;17297;54.022;10.760;2023-03-03T14:15:54;102115.41;;;8.51;65.41
30516;BME280;17297;54.022;10.760;2023-03-03T14:21:28;102096.34;;;8.54;65.42
30516;BME280;17297;54.022;10.760;2023-03-03T14:24:14;102095.34;;;8.55;65.38
30516;BME280;17297;54.022;10.760;2023-03-03T14:26:48;102088.16;;;8.55;65.22
30516;BME280;17297;54.022;10.760;2023-03-03T14:31:52;102085.34;;;8.57;65.09
30516;BME280;17297;54.022;10.760;2023-03-03T14:36:47;102082.47;;;8.59;65.07
30516;BME280;17297;54.022;10.760;2023-03-03T14:39:35;102074.44;;;8.59;65.21
30516;BME280;17297;54.022;10.760;2023-03-03T14:42:05;102084.16;;;8.60;65.09
30516;BME280;17297;54.022;10.760;2023-03-03T14:44:37;102081.19;;;8.63;65.15
30516;BME280;17297;54.022;10.760;2023-03-03T14:47:23;102074.00;;;8.63;65.04
30516;BME280;17297;54.022;10.760;2023-03-03T14:49:52;102079.22;;;8.65;65.02
30516;BME280;17297;54.022;10.760;2023-03-03T14:52:22;102070.31;;;8.64;65.06
30516;BME280;17297;54.022;10.760;2023-03-03T14:54:51;102071.31;;;8.63;65.01
30516;BME280;17297;54.022;10.760;2023-03-03T15:00:46;102064.97;;;8.64;65.07
30516;BME280;17297;54.022;10.760;2023-03-03T15:05:48;102063.56;;;8.60;64.89
30516;BME280;17297;54.022;10.760;2023-03-03T15:08:23;102055.66;;;8.59;64.83
30516;BME280;17297;54.022;10.760;2023-03-03T15:10:52;102063.72;;;8.59;64.72
30516;BME280;17297;54.022;10.760;2023-03-03T15:18:27;102058.63;;;8.55;64.58
30516;BME280;17297;54.022;10.760;2023-03-03T15:21:15;102047.19;;;8.53;64.65
30516;BME280;17297;54.022;10.760;2023-03-03T15:23:56;102058.09;;;8.52;64.65
30516;BME280;17297;54.022;10.760;2023-03-03T15:31:58;102039.47;;;8.50;64.39
30516;BME280;17297;54.022;10.760;2023-03-03T15:39:52;102022.56;;;8.40;64.66
30516;BME280;17297;54.022;10.760;2023-03-03T15:42:36;102028.09;;;8.39;64.59
30516;BME280;17297;54.022;10.760;2023-03-03T15:59:14;102002.25;;;8.28;64.50
30516;BME280;17297;54.022;10.760;2023-03-03T16:04:32;101995.53;;;8.24;64.39
30516;BME280;17297;54.022;10.760;2023-03-03T16:07:16;101991.16;;;8.23;64.27
30516;BME280;17297;54.022;10.760;2023-03-03T16:17:30;101989.91;;;8.17;64.11
30516;BME280;17297;54.022;10.760;2023-03-03T16:20:22;101984.66;;;8.16;64.43
30516;BME280;17297;54.022;10.760;2023-03-03T16:23:00;101981.31;;;8.14;64.10
30516;BME280;17297;54.022;10.760;2023-03-03T16:26:32;101988.66;;;8.12;64.13
30516;BME280;17297;54.022;10.760;2023-03-03T16:28:37;101992.63;;;8.07;64.37
30516;BME280;17297;54.022;10.760;2023-03-03T16:31:12;101983.88;;;8.05;64.29
30516;BME280;17297;54.022;10.760;2023-03-03T16:39:23;101990.41;;;7.93;64.35